Main page
METAR-TAF:

METAR-TAF

Airports :

Mykonos, Greece

Mykonos Island National Airport

latitude: 37-26-09N, longitude: 025-20-45E, elevation: 123 m

Current weather observation

The report was made 42 minutes ago, at 13:20 UTC
Wind 9 kt from the North
Temperature 23°C
Humidity 47%
Pressure 1016 hPa
Visibility 10 km or more
no clouds below 1500 m and no cumulonimbus

METAR: LGMK 211320Z 01009KT CAVOK 23/11 Q1016

Time: 17:02 (14:02 UTC)

Forecast

The report was made 3 hours and 2 minutes ago, at 11:00 UTC
Forecast valid from 21 at 12 UTC to 21 at 21 UTC
Wind 10 kt from the North
Visibility 10 km or more
Few clouds at a height of 1800 ft

TAF: LGMK 211100Z 2112/2121 35010KT 9999 FEW018

Weather observations and forecasts of more than 4000 airports (METAR and TAF reports).

The available stations are represented by yellow and red dots on the map.

Hover mouse over dot to see the name of the station.

Then click to see weather observations and forecasts.

To change the map : click on the green buttons with a black cross to zoom in, on the green button with a dash to zoom out, or on the green arrows for adjacent maps.


METAR-TAF: